sensor_id;sensor_type;location;lat;lon;timestamp;P1;durP1;ratioP1;P2;durP2;ratioP2
4939;SDS011;2485;49.326;7.214;2023-05-10T00:02:12;3.37;;;2.80;;
4939;SDS011;2485;49.326;7.214;2023-05-10T00:04:39;3.40;;;2.70;;
4939;SDS011;2485;49.326;7.214;2023-05-10T00:07:05;5.10;;;2.83;;
4939;SDS011;2485;49.326;7.214;2023-05-10T00:09:31;3.30;;;3.00;;
4939;SDS011;2485;49.326;7.214;2023-05-10T00:11:58;3.37;;;2.90;;
4939;SDS011;2485;49.326;7.214;2023-05-10T00:14:24;3.27;;;2.90;;
4939;SDS011;2485;49.326;7.214;2023-05-10T00:16:51;3.77;;;3.03;;
4939;SDS011;2485;49.326;7.214;2023-05-10T00:19:18;2.90;;;2.60;;
4939;SDS011;2485;49.326;7.214;2023-05-10T00:21:45;11.53;;;3.83;;
4939;SDS011;2485;49.326;7.214;2023-05-10T00:24:11;5.17;;;2.90;;
4939;SDS011;2485;49.326;7.214;2023-05-10T00:26:37;3.30;;;3.00;;
4939;SDS011;2485;49.326;7.214;2023-05-10T00:29:04;3.63;;;2.47;;
4939;SDS011;2485;49.326;7.214;2023-05-10T00:31:30;4.37;;;3.20;;
4939;SDS011;2485;49.326;7.214;2023-05-10T00:33:56;3.90;;;2.93;;
4939;SDS011;2485;49.326;7.214;2023-05-10T00:36:24;3.83;;;3.10;;
4939;SDS011;2485;49.326;7.214;2023-05-10T00:38:51;3.83;;;2.40;;
4939;SDS011;2485;49.326;7.214;2023-05-10T00:41:17;2.67;;;2.47;;
4939;SDS011;2485;49.326;7.214;2023-05-10T00:43:43;4.20;;;2.33;;
4939;SDS011;2485;49.326;7.214;2023-05-10T00:46:10;7.33;;;3.60;;
4939;SDS011;2485;49.326;7.214;2023-05-10T00:48:36;2.57;;;2.33;;
4939;SDS011;2485;49.326;7.214;2023-05-10T00:51:02;3.73;;;1.97;;
4939;SDS011;2485;49.326;7.214;2023-05-10T00:53:31;3.53;;;2.43;;
4939;SDS011;2485;49.326;7.214;2023-05-10T00:55:58;2.17;;;1.97;;
4939;SDS011;2485;49.326;7.214;2023-05-10T00:58:24;5.03;;;2.10;;
4939;SDS011;2485;49.326;7.214;2023-05-10T01:00:53;2.53;;;2.07;;
4939;SDS011;2485;49.326;7.214;2023-05-10T01:03:21;8.97;;;2.30;;
4939;SDS011;2485;49.326;7.214;2023-05-10T01:05:47;6.10;;;2.07;;
4939;SDS011;2485;49.326;7.214;2023-05-10T01:08:13;35.30;;;3.80;;
4939;SDS011;2485;49.326;7.214;2023-05-10T01:10:41;3.87;;;2.03;;
4939;SDS011;2485;49.326;7.214;2023-05-10T01:13:08;4.77;;;2.60;;
4939;SDS011;2485;49.326;7.214;2023-05-10T01:15:35;3.07;;;2.30;;
4939;SDS011;2485;49.326;7.214;2023-05-10T01:18:02;4.93;;;2.43;;
4939;SDS011;2485;49.326;7.214;2023-05-10T01:20:29;3.23;;;2.93;;
4939;SDS011;2485;49.326;7.214;2023-05-10T01:25:55;5.10;;;3.30;;
4939;SDS011;2485;49.326;7.214;2023-05-10T01:28:30;4.60;;;2.63;;
4939;SDS011;2485;49.326;7.214;2023-05-10T01:33:52;5.33;;;3.50;;
4939;SDS011;2485;49.326;7.214;2023-05-10T01:36:23;13.03;;;4.33;;
4939;SDS011;2485;49.326;7.214;2023-05-10T01:38:53;5.53;;;4.70;;
4939;SDS011;2485;49.326;7.214;2023-05-10T01:41:24;7.80;;;4.53;;
4939;SDS011;2485;49.326;7.214;2023-05-10T01:43:53;6.57;;;5.20;;
4939;SDS011;2485;49.326;7.214;2023-05-10T01:46:23;9.80;;;5.50;;
4939;SDS011;2485;49.326;7.214;2023-05-10T01:48:53;8.87;;;6.07;;
4939;SDS011;2485;49.326;7.214;2023-05-10T01:51:21;9.07;;;6.40;;
4939;SDS011;2485;49.326;7.214;2023-05-10T01:53:48;8.90;;;6.57;;
4939;SDS011;2485;49.326;7.214;2023-05-10T01:56:16;7.77;;;5.90;;
4939;SDS011;2485;49.326;7.214;2023-05-10T01:58:46;7.63;;;6.20;;
4939;SDS011;2485;49.326;7.214;2023-05-10T02:01:13;16.40;;;7.10;;
4939;SDS011;2485;49.326;7.214;2023-05-10T02:03:41;8.43;;;6.20;;
4939;SDS011;2485;49.326;7.214;2023-05-10T02:06:10;9.90;;;7.17;;
4939;SDS011;2485;49.326;7.214;2023-05-10T02:08:36;7.70;;;5.90;;
4939;SDS011;2485;49.326;7.214;2023-05-10T02:11:04;10.40;;;6.40;;
4939;SDS011;2485;49.326;7.214;2023-05-10T02:13:31;9.30;;;7.47;;
4939;SDS011;2485;49.326;7.214;2023-05-10T02:15:59;9.00;;;6.97;;
4939;SDS011;2485;49.326;7.214;2023-05-10T02:18:26;9.43;;;6.87;;
4939;SDS011;2485;49.326;7.214;2023-05-10T02:20:53;10.50;;;7.17;;
4939;SDS011;2485;49.326;7.214;2023-05-10T02:23:22;9.13;;;6.27;;
4939;SDS011;2485;49.326;7.214;2023-05-10T02:25:49;8.00;;;6.50;;
4939;SDS011;2485;49.326;7.214;2023-05-10T02:28:16;11.00;;;7.10;;
4939;SDS011;2485;49.326;7.214;2023-05-10T02:30:43;13.27;;;7.70;;
4939;SDS011;2485;49.326;7.214;2023-05-10T02:33:10;11.17;;;7.70;;
4939;SDS011;2485;49.326;7.214;2023-05-10T02:35:37;10.83;;;7.27;;
4939;SDS011;2485;49.326;7.214;2023-05-10T02:38:04;11.37;;;7.57;;
4939;SDS011;2485;49.326;7.214;2023-05-10T02:40:32;10.93;;;7.83;;
4939;SDS011;2485;49.326;7.214;2023-05-10T02:42:59;13.83;;;8.40;;
4939;SDS011;2485;49.326;7.214;2023-05-10T02:45:27;11.73;;;8.63;;
4939;SDS011;2485;49.326;7.214;2023-05-10T02:47:54;12.70;;;9.37;;
4939;SDS011;2485;49.326;7.214;2023-05-10T02:50:20;13.27;;;9.73;;
4939;SDS011;2485;49.326;7.214;2023-05-10T02:52:49;12.90;;;9.80;;
4939;SDS011;2485;49.326;7.214;2023-05-10T02:55:16;12.70;;;8.33;;
4939;SDS011;2485;49.326;7.214;2023-05-10T02:57:48;18.60;;;9.17;;
4939;SDS011;2485;49.326;7.214;2023-05-10T03:00:17;15.73;;;9.43;;
4939;SDS011;2485;49.326;7.214;2023-05-10T03:02:43;14.10;;;8.77;;
4939;SDS011;2485;49.326;7.214;2023-05-10T03:05:09;13.57;;;9.67;;
4939;SDS011;2485;49.326;7.214;2023-05-10T03:07:36;12.53;;;8.23;;
4939;SDS011;2485;49.326;7.214;2023-05-10T03:10:02;13.30;;;7.90;;
4939;SDS011;2485;49.326;7.214;2023-05-10T03:12:31;13.00;;;8.40;;
4939;SDS011;2485;49.326;7.214;2023-05-10T03:15:03;11.23;;;8.00;;
4939;SDS011;2485;49.326;7.214;2023-05-10T03:17:35;10.63;;;8.67;;
4939;SDS011;2485;49.326;7.214;2023-05-10T03:20:03;15.13;;;8.87;;
4939;SDS011;2485;49.326;7.214;2023-05-10T03:22:30;12.83;;;8.60;;
4939;SDS011;2485;49.326;7.214;2023-05-10T03:24:57;13.30;;;8.93;;
4939;SDS011;2485;49.326;7.214;2023-05-10T03:27:23;11.70;;;8.70;;
4939;SDS011;2485;49.326;7.214;2023-05-10T03:29:51;11.20;;;8.37;;
4939;SDS011;2485;49.326;7.214;2023-05-10T03:32:20;11.53;;;8.73;;
4939;SDS011;2485;49.326;7.214;2023-05-10T03:34:46;9.40;;;6.80;;
4939;SDS011;2485;49.326;7.214;2023-05-10T03:37:12;10.90;;;7.87;;
4939;SDS011;2485;49.326;7.214;2023-05-10T03:39:39;11.37;;;7.60;;
4939;SDS011;2485;49.326;7.214;2023-05-10T03:42:05;11.70;;;6.30;;
4939;SDS011;2485;49.326;7.214;2023-05-10T03:44:32;8.83;;;7.17;;
4939;SDS011;2485;49.326;7.214;2023-05-10T03:46:59;11.53;;;6.80;;
4939;SDS011;2485;49.326;7.214;2023-05-10T03:49:26;9.53;;;6.53;;
4939;SDS011;2485;49.326;7.214;2023-05-10T03:51:53;10.00;;;6.77;;
4939;SDS011;2485;49.326;7.214;2023-05-10T03:54:19;8.87;;;6.53;;
4939;SDS011;2485;49.326;7.214;2023-05-10T03:56:45;13.30;;;6.90;;
4939;SDS011;2485;49.326;7.214;2023-05-10T03:59:13;8.73;;;7.00;;
4939;SDS011;2485;49.326;7.214;2023-05-10T04:01:39;11.53;;;7.83;;
4939;SDS011;2485;49.326;7.214;2023-05-10T04:04:05;8.87;;;6.47;;
4939;SDS011;2485;49.326;7.214;2023-05-10T04:06:33;10.33;;;7.07;;
4939;SDS011;2485;49.326;7.214;2023-05-10T04:09:00;11.50;;;8.40;;
4939;SDS011;2485;49.326;7.214;2023-05-10T04:11:29;9.00;;;7.10;;
4939;SDS011;2485;49.326;7.214;2023-05-10T04:13:55;10.63;;;7.50;;
4939;SDS011;2485;49.326;7.214;2023-05-10T04:16:22;14.00;;;9.00;;
4939;SDS011;2485;49.326;7.214;2023-05-10T04:18:48;12.57;;;7.73;;
4939;SDS011;2485;49.326;7.214;2023-05-10T04:21:14;11.83;;;8.93;;
4939;SDS011;2485;49.326;7.214;2023-05-10T04:23:42;11.33;;;7.93;;
4939;SDS011;2485;49.326;7.214;2023-05-10T04:26:08;9.27;;;6.73;;
4939;SDS011;2485;49.326;7.214;2023-05-10T04:28:35;10.87;;;8.07;;
4939;SDS011;2485;49.326;7.214;2023-05-10T04:31:01;11.70;;;7.60;;
4939;SDS011;2485;49.326;7.214;2023-05-10T04:33:28;9.73;;;8.20;;
4939;SDS011;2485;49.326;7.214;2023-05-10T04:35:54;10.03;;;7.40;;
4939;SDS011;2485;49.326;7.214;2023-05-10T04:38:20;12.00;;;7.33;;
4939;SDS011;2485;49.326;7.214;2023-05-10T04:40:48;12.90;;;7.53;;
4939;SDS011;2485;49.326;7.214;2023-05-10T04:43:14;9.17;;;7.30;;
4939;SDS011;2485;49.326;7.214;2023-05-10T04:45:41;9.10;;;6.70;;
4939;SDS011;2485;49.326;7.214;2023-05-10T04:48:07;9.80;;;7.50;;
4939;SDS011;2485;49.326;7.214;2023-05-10T04:50:33;12.50;;;9.00;;
4939;SDS011;2485;49.326;7.214;2023-05-10T04:53:00;8.50;;;6.57;;
4939;SDS011;2485;49.326;7.214;2023-05-10T04:55:26;9.53;;;7.17;;
4939;SDS011;2485;49.326;7.214;2023-05-10T04:57:54;8.70;;;6.53;;
4939;SDS011;2485;49.326;7.214;2023-05-10T05:00:22;7.93;;;5.60;;
4939;SDS011;2485;49.326;7.214;2023-05-10T05:02:48;10.83;;;6.43;;
4939;SDS011;2485;49.326;7.214;2023-05-10T05:05:14;6.83;;;5.60;;
4939;SDS011;2485;49.326;7.214;2023-05-10T05:07:41;5.90;;;5.00;;
4939;SDS011;2485;49.326;7.214;2023-05-10T05:10:08;6.40;;;5.17;;
4939;SDS011;2485;49.326;7.214;2023-05-10T05:12:34;6.50;;;5.20;;
4939;SDS011;2485;49.326;7.214;2023-05-10T05:15:02;5.73;;;5.13;;
4939;SDS011;2485;49.326;7.214;2023-05-10T05:17:29;5.07;;;4.57;;
4939;SDS011;2485;49.326;7.214;2023-05-10T05:19:56;7.63;;;4.03;;
4939;SDS011;2485;49.326;7.214;2023-05-10T05:22:22;6.13;;;3.90;;
4939;SDS011;2485;49.326;7.214;2023-05-10T05:24:52;4.30;;;3.73;;
4939;SDS011;2485;49.326;7.214;2023-05-10T05:27:18;19.37;;;3.80;;
4939;SDS011;2485;49.326;7.214;2023-05-10T05:29:45;4.90;;;4.27;;
4939;SDS011;2485;49.326;7.214;2023-05-10T05:32:13;4.87;;;4.33;;
4939;SDS011;2485;49.326;7.214;2023-05-10T05:34:39;4.80;;;4.30;;
4939;SDS011;2485;49.326;7.214;2023-05-10T05:37:06;5.77;;;4.00;;
4939;SDS011;2485;49.326;7.214;2023-05-10T05:39:32;6.23;;;3.90;;
4939;SDS011;2485;49.326;7.214;2023-05-10T05:41:58;4.70;;;4.20;;
4939;SDS011;2485;49.326;7.214;2023-05-10T05:44:25;6.23;;;4.10;;
4939;SDS011;2485;49.326;7.214;2023-05-10T05:46:53;5.67;;;3.80;;
4939;SDS011;2485;49.326;7.214;2023-05-10T05:49:21;7.27;;;4.03;;
4939;SDS011;2485;49.326;7.214;2023-05-10T05:51:47;4.90;;;4.37;;
4939;SDS011;2485;49.326;7.214;2023-05-10T05:54:14;12.53;;;3.83;;
4939;SDS011;2485;49.326;7.214;2023-05-10T05:56:40;7.63;;;3.80;;
4939;SDS011;2485;49.326;7.214;2023-05-10T05:59:07;6.00;;;4.23;;
4939;SDS011;2485;49.326;7.214;2023-05-10T06:01:34;5.47;;;3.20;;
4939;SDS011;2485;49.326;7.214;2023-05-10T06:04:00;4.17;;;3.77;;
4939;SDS011;2485;49.326;7.214;2023-05-10T06:06:28;6.93;;;3.57;;
4939;SDS011;2485;49.326;7.214;2023-05-10T06:08:54;6.17;;;4.10;;
4939;SDS011;2485;49.326;7.214;2023-05-10T06:11:21;5.03;;;3.77;;
4939;SDS011;2485;49.326;7.214;2023-05-10T06:13:47;5.87;;;3.97;;
4939;SDS011;2485;49.326;7.214;2023-05-10T06:16:14;4.10;;;3.30;;
4939;SDS011;2485;49.326;7.214;2023-05-10T06:18:40;7.10;;;3.57;;
4939;SDS011;2485;49.326;7.214;2023-05-10T06:21:06;13.83;;;3.97;;
4939;SDS011;2485;49.326;7.214;2023-05-10T06:23:34;3.90;;;3.57;;
4939;SDS011;2485;49.326;7.214;2023-05-10T06:26:00;3.67;;;2.70;;
4939;SDS011;2485;49.326;7.214;2023-05-10T06:28:28;3.53;;;3.10;;
4939;SDS011;2485;49.326;7.214;2023-05-10T06:30:56;2.90;;;2.60;;
4939;SDS011;2485;49.326;7.214;2023-05-10T06:33:22;2.90;;;2.50;;
4939;SDS011;2485;49.326;7.214;2023-05-10T06:35:48;2.10;;;1.90;;
4939;SDS011;2485;49.326;7.214;2023-05-10T06:38:15;3.57;;;2.30;;
4939;SDS011;2485;49.326;7.214;2023-05-10T06:40:43;2.47;;;2.03;;
4939;SDS011;2485;49.326;7.214;2023-05-10T06:43:09;3.10;;;1.80;;
4939;SDS011;2485;49.326;7.214;2023-05-10T06:45:36;2.57;;;1.70;;
4939;SDS011;2485;49.326;7.214;2023-05-10T06:48:02;3.10;;;2.07;;
4939;SDS011;2485;49.326;7.214;2023-05-10T06:50:28;3.63;;;2.10;;
4939;SDS011;2485;49.326;7.214;2023-05-10T06:52:55;4.77;;;2.37;;
4939;SDS011;2485;49.326;7.214;2023-05-10T06:55:21;1.60;;;1.50;;
4939;SDS011;2485;49.326;7.214;2023-05-10T06:57:49;7.43;;;1.90;;
4939;SDS011;2485;49.326;7.214;2023-05-10T07:00:16;2.07;;;1.83;;
4939;SDS011;2485;49.326;7.214;2023-05-10T07:02:42;2.93;;;1.80;;
4939;SDS011;2485;49.326;7.214;2023-05-10T07:05:08;2.10;;;1.90;;
4939;SDS011;2485;49.326;7.214;2023-05-10T07:07:35;6.27;;;2.03;;
4939;SDS011;2485;49.326;7.214;2023-05-10T07:10:01;1.30;;;1.20;;
4939;SDS011;2485;49.326;7.214;2023-05-10T07:12:27;2.07;;;1.63;;
4939;SDS011;2485;49.326;7.214;2023-05-10T07:14:55;2.43;;;2.00;;
4939;SDS011;2485;49.326;7.214;2023-05-10T07:17:22;3.50;;;1.80;;
4939;SDS011;2485;49.326;7.214;2023-05-10T07:19:48;3.00;;;2.03;;
4939;SDS011;2485;49.326;7.214;2023-05-10T07:22:14;2.20;;;1.40;;
4939;SDS011;2485;49.326;7.214;2023-05-10T07:24:41;1.97;;;1.77;;
4939;SDS011;2485;49.326;7.214;2023-05-10T07:27:08;2.37;;;1.47;;
4939;SDS011;2485;49.326;7.214;2023-05-10T07:29:34;2.80;;;1.40;;
4939;SDS011;2485;49.326;7.214;2023-05-10T07:32:02;1.83;;;1.73;;
4939;SDS011;2485;49.326;7.214;2023-05-10T07:34:29;4.03;;;1.60;;
4939;SDS011;2485;49.326;7.214;2023-05-10T07:36:57;4.83;;;2.00;;
4939;SDS011;2485;49.326;7.214;2023-05-10T07:39:23;3.30;;;1.40;;
4939;SDS011;2485;49.326;7.214;2023-05-10T07:41:50;1.97;;;1.53;;
4939;SDS011;2485;49.326;7.214;2023-05-10T07:44:16;2.70;;;1.50;;
4939;SDS011;2485;49.326;7.214;2023-05-10T07:46:43;2.13;;;1.57;;
4939;SDS011;2485;49.326;7.214;2023-05-10T07:49:11;3.77;;;1.50;;
4939;SDS011;2485;49.326;7.214;2023-05-10T07:51:37;2.57;;;1.30;;
4939;SDS011;2485;49.326;7.214;2023-05-10T07:54:04;3.27;;;1.30;;
4939;SDS011;2485;49.326;7.214;2023-05-10T07:56:31;2.73;;;1.60;;
4939;SDS011;2485;49.326;7.214;2023-05-10T07:58:58;2.50;;;1.00;;
4939;SDS011;2485;49.326;7.214;2023-05-10T08:01:24;1.43;;;1.33;;
4939;SDS011;2485;49.326;7.214;2023-05-10T08:03:51;3.20;;;1.40;;
4939;SDS011;2485;49.326;7.214;2023-05-10T08:06:19;2.67;;;1.33;;
4939;SDS011;2485;49.326;7.214;2023-05-10T08:08:46;1.50;;;1.37;;
4939;SDS011;2485;49.326;7.214;2023-05-10T08:11:15;2.47;;;1.17;;
4939;SDS011;2485;49.326;7.214;2023-05-10T08:13:41;1.83;;;1.30;;
4939;SDS011;2485;49.326;7.214;2023-05-10T08:16:08;4.80;;;1.70;;
4939;SDS011;2485;49.326;7.214;2023-05-10T08:18:34;1.33;;;1.23;;
4939;SDS011;2485;49.326;7.214;2023-05-10T08:21:00;1.90;;;1.70;;
4939;SDS011;2485;49.326;7.214;2023-05-10T08:23:28;2.60;;;1.50;;
4939;SDS011;2485;49.326;7.214;2023-05-10T08:25:54;1.90;;;1.70;;
4939;SDS011;2485;49.326;7.214;2023-05-10T08:28:21;6.33;;;1.87;;
4939;SDS011;2485;49.326;7.214;2023-05-10T08:30:47;2.03;;;1.40;;
4939;SDS011;2485;49.326;7.214;2023-05-10T08:33:13;1.90;;;1.63;;
4939;SDS011;2485;49.326;7.214;2023-05-10T08:35:40;1.70;;;1.57;;
4939;SDS011;2485;49.326;7.214;2023-05-10T08:38:06;2.40;;;1.57;;
4939;SDS011;2485;49.326;7.214;2023-05-10T08:40:34;2.37;;;1.33;;
4939;SDS011;2485;49.326;7.214;2023-05-10T08:43:03;1.50;;;1.40;;
4939;SDS011;2485;49.326;7.214;2023-05-10T08:45:31;2.40;;;1.40;;
4939;SDS011;2485;49.326;7.214;2023-05-10T08:47:58;1.73;;;1.57;;
4939;SDS011;2485;49.326;7.214;2023-05-10T08:50:25;2.20;;;1.83;;
4939;SDS011;2485;49.326;7.214;2023-05-10T08:52:51;4.33;;;1.43;;
4939;SDS011;2485;49.326;7.214;2023-05-10T08:55:19;5.90;;;1.80;;
4939;SDS011;2485;49.326;7.214;2023-05-10T08:57:46;3.17;;;2.10;;
4939;SDS011;2485;49.326;7.214;2023-05-10T09:00:13;3.47;;;1.43;;
4939;SDS011;2485;49.326;7.214;2023-05-10T09:02:39;3.10;;;1.67;;
4939;SDS011;2485;49.326;7.214;2023-05-10T09:05:06;8.57;;;2.90;;
4939;SDS011;2485;49.326;7.214;2023-05-10T09:07:33;2.30;;;1.43;;
4939;SDS011;2485;49.326;7.214;2023-05-10T09:10:00;1.87;;;1.50;;
4939;SDS011;2485;49.326;7.214;2023-05-10T09:12:27;4.60;;;2.00;;
4939;SDS011;2485;49.326;7.214;2023-05-10T09:14:54;6.83;;;1.40;;
4939;SDS011;2485;49.326;7.214;2023-05-10T09:17:22;7.00;;;1.50;;
4939;SDS011;2485;49.326;7.214;2023-05-10T09:19:49;2.70;;;1.40;;
4939;SDS011;2485;49.326;7.214;2023-05-10T09:22:15;1.73;;;1.33;;
4939;SDS011;2485;49.326;7.214;2023-05-10T09:24:42;4.50;;;1.60;;
4939;SDS011;2485;49.326;7.214;2023-05-10T09:27:10;2.90;;;1.53;;
4939;SDS011;2485;49.326;7.214;2023-05-10T09:29:39;7.30;;;1.80;;
4939;SDS011;2485;49.326;7.214;2023-05-10T09:32:07;2.50;;;1.67;;
4939;SDS011;2485;49.326;7.214;2023-05-10T09:34:33;8.43;;;2.03;;
4939;SDS011;2485;49.326;7.214;2023-05-10T09:37:01;3.23;;;1.57;;
4939;SDS011;2485;49.326;7.214;2023-05-10T09:39:31;2.30;;;1.70;;
4939;SDS011;2485;49.326;7.214;2023-05-10T09:41:58;4.80;;;1.80;;
4939;SDS011;2485;49.326;7.214;2023-05-10T09:44:25;3.93;;;1.50;;
4939;SDS011;2485;49.326;7.214;2023-05-10T09:46:52;2.50;;;1.30;;
4939;SDS011;2485;49.326;7.214;2023-05-10T09:49:20;3.07;;;1.33;;
4939;SDS011;2485;49.326;7.214;2023-05-10T09:51:46;4.57;;;1.37;;
4939;SDS011;2485;49.326;7.214;2023-05-10T09:54:14;5.27;;;1.57;;
4939;SDS011;2485;49.326;7.214;2023-05-10T09:56:41;3.83;;;1.40;;
4939;SDS011;2485;49.326;7.214;2023-05-10T09:59:09;3.30;;;1.23;;
4939;SDS011;2485;49.326;7.214;2023-05-10T10:01:35;3.80;;;1.27;;
4939;SDS011;2485;49.326;7.214;2023-05-10T10:04:02;2.13;;;1.30;;
4939;SDS011;2485;49.326;7.214;2023-05-10T10:06:30;2.40;;;1.40;;
4939;SDS011;2485;49.326;7.214;2023-05-10T10:09:00;1.73;;;1.30;;
4939;SDS011;2485;49.326;7.214;2023-05-10T10:11:27;10.27;;;1.60;;
4939;SDS011;2485;49.326;7.214;2023-05-10T10:13:54;5.27;;;1.33;;
4939;SDS011;2485;49.326;7.214;2023-05-10T10:16:20;2.13;;;1.27;;
4939;SDS011;2485;49.326;7.214;2023-05-10T10:18:47;6.17;;;1.43;;
4939;SDS011;2485;49.326;7.214;2023-05-10T10:21:13;1.40;;;1.10;;
4939;SDS011;2485;49.326;7.214;2023-05-10T10:23:42;1.30;;;0.93;;
4939;SDS011;2485;49.326;7.214;2023-05-10T10:26:09;1.93;;;1.20;;
4939;SDS011;2485;49.326;7.214;2023-05-10T10:28:38;2.83;;;1.13;;
4939;SDS011;2485;49.326;7.214;2023-05-10T10:31:12;1.10;;;1.00;;
4939;SDS011;2485;49.326;7.214;2023-05-10T10:33:47;3.63;;;1.60;;
4939;SDS011;2485;49.326;7.214;2023-05-10T10:36:16;1.50;;;1.00;;
4939;SDS011;2485;49.326;7.214;2023-05-10T10:39:00;1.67;;;1.10;;
4939;SDS011;2485;49.326;7.214;2023-05-10T10:41:30;4.10;;;1.00;;
4939;SDS011;2485;49.326;7.214;2023-05-10T10:49:23;4.53;;;0.93;;
4939;SDS011;2485;49.326;7.214;2023-05-10T10:54:32;1.10;;;1.00;;
4939;SDS011;2485;49.326;7.214;2023-05-10T10:57:10;4.23;;;1.20;;
4939;SDS011;2485;49.326;7.214;2023-05-10T10:59:40;2.90;;;1.37;;
4939;SDS011;2485;49.326;7.214;2023-05-10T11:02:07;5.10;;;1.10;;
4939;SDS011;2485;49.326;7.214;2023-05-10T11:04:40;1.70;;;0.97;;
4939;SDS011;2485;49.326;7.214;2023-05-10T11:07:16;2.17;;;0.80;;
4939;SDS011;2485;49.326;7.214;2023-05-10T11:09:44;7.10;;;1.17;;
4939;SDS011;2485;49.326;7.214;2023-05-10T11:12:11;1.63;;;1.00;;
4939;SDS011;2485;49.326;7.214;2023-05-10T11:14:38;1.00;;;0.90;;
4939;SDS011;2485;49.326;7.214;2023-05-10T11:22:27;3.67;;;0.97;;
4939;SDS011;2485;49.326;7.214;2023-05-10T11:24:57;1.20;;;1.10;;
4939;SDS011;2485;49.326;7.214;2023-05-10T11:27:24;2.13;;;0.97;;
4939;SDS011;2485;49.326;7.214;2023-05-10T11:29:51;1.00;;;0.80;;
4939;SDS011;2485;49.326;7.214;2023-05-10T11:32:17;1.17;;;0.90;;
4939;SDS011;2485;49.326;7.214;2023-05-10T11:34:46;1.47;;;1.00;;
4939;SDS011;2485;49.326;7.214;2023-05-10T11:37:13;2.70;;;1.10;;
4939;SDS011;2485;49.326;7.214;2023-05-10T11:39:45;2.30;;;1.10;;
4939;SDS011;2485;49.326;7.214;2023-05-10T11:42:13;2.27;;;1.10;;
4939;SDS011;2485;49.326;7.214;2023-05-10T11:44:39;2.87;;;1.03;;
4939;SDS011;2485;49.326;7.214;2023-05-10T11:47:06;1.13;;;1.03;;
4939;SDS011;2485;49.326;7.214;2023-05-10T11:49:33;0.90;;;0.80;;
4939;SDS011;2485;49.326;7.214;2023-05-10T11:52:06;6.83;;;1.00;;
4939;SDS011;2485;49.326;7.214;2023-05-10T11:54:32;1.57;;;0.80;;
4939;SDS011;2485;49.326;7.214;2023-05-10T11:56:59;1.83;;;1.00;;
4939;SDS011;2485;49.326;7.214;2023-05-10T11:59:28;1.87;;;0.90;;
4939;SDS011;2485;49.326;7.214;2023-05-10T12:01:54;2.83;;;1.20;;
4939;SDS011;2485;49.326;7.214;2023-05-10T12:04:21;1.13;;;0.73;;
4939;SDS011;2485;49.326;7.214;2023-05-10T12:06:48;1.27;;;1.00;;
4939;SDS011;2485;49.326;7.214;2023-05-10T12:09:14;4.50;;;0.90;;
4939;SDS011;2485;49.326;7.214;2023-05-10T12:11:41;4.13;;;1.30;;
4939;SDS011;2485;49.326;7.214;2023-05-10T12:14:08;1.83;;;0.90;;
4939;SDS011;2485;49.326;7.214;2023-05-10T12:16:36;1.40;;;1.00;;
4939;SDS011;2485;49.326;7.214;2023-05-10T12:19:02;1.87;;;0.87;;
4939;SDS011;2485;49.326;7.214;2023-05-10T12:21:30;5.80;;;0.90;;
4939;SDS011;2485;49.326;7.214;2023-05-10T12:23:59;0.93;;;0.80;;
4939;SDS011;2485;49.326;7.214;2023-05-10T12:26:26;1.30;;;0.90;;
4939;SDS011;2485;49.326;7.214;2023-05-10T12:28:54;1.77;;;1.00;;
4939;SDS011;2485;49.326;7.214;2023-05-10T12:31:20;1.00;;;0.80;;
4939;SDS011;2485;49.326;7.214;2023-05-10T12:33:48;1.37;;;0.93;;
4939;SDS011;2485;49.326;7.214;2023-05-10T12:36:15;1.50;;;0.80;;
4939;SDS011;2485;49.326;7.214;2023-05-10T12:38:43;1.30;;;0.93;;
4939;SDS011;2485;49.326;7.214;2023-05-10T12:41:13;2.27;;;1.10;;
4939;SDS011;2485;49.326;7.214;2023-05-10T12:43:40;1.13;;;0.90;;
4939;SDS011;2485;49.326;7.214;2023-05-10T12:46:07;1.77;;;1.17;;
4939;SDS011;2485;49.326;7.214;2023-05-10T12:48:34;1.57;;;1.00;;
4939;SDS011;2485;49.326;7.214;2023-05-10T12:51:02;2.43;;;1.13;;
4939;SDS011;2485;49.326;7.214;2023-05-10T12:53:29;4.40;;;1.10;;
4939;SDS011;2485;49.326;7.214;2023-05-10T12:55:56;2.17;;;0.90;;
4939;SDS011;2485;49.326;7.214;2023-05-10T12:58:23;4.13;;;1.17;;
4939;SDS011;2485;49.326;7.214;2023-05-10T13:00:49;2.13;;;0.83;;
4939;SDS011;2485;49.326;7.214;2023-05-10T13:03:17;1.40;;;0.90;;
4939;SDS011;2485;49.326;7.214;2023-05-10T13:05:43;0.93;;;0.80;;
4939;SDS011;2485;49.326;7.214;2023-05-10T13:08:12;2.23;;;0.97;;
4939;SDS011;2485;49.326;7.214;2023-05-10T13:10:38;2.30;;;0.90;;
4939;SDS011;2485;49.326;7.214;2023-05-10T13:13:05;2.43;;;1.00;;
4939;SDS011;2485;49.326;7.214;2023-05-10T13:15:32;2.43;;;0.90;;
4939;SDS011;2485;49.326;7.214;2023-05-10T13:17:59;2.30;;;1.10;;
4939;SDS011;2485;49.326;7.214;2023-05-10T13:20:25;1.47;;;1.00;;
4939;SDS011;2485;49.326;7.214;2023-05-10T13:22:52;1.73;;;0.90;;
4939;SDS011;2485;49.326;7.214;2023-05-10T13:25:20;1.97;;;1.00;;
4939;SDS011;2485;49.326;7.214;2023-05-10T13:27:46;1.47;;;0.90;;
4939;SDS011;2485;49.326;7.214;2023-05-10T13:30:14;2.30;;;1.10;;
4939;SDS011;2485;49.326;7.214;2023-05-10T13:32:44;1.57;;;1.00;;
4939;SDS011;2485;49.326;7.214;2023-05-10T13:35:12;3.47;;;1.00;;
4939;SDS011;2485;49.326;7.214;2023-05-10T13:37:39;2.27;;;0.90;;
4939;SDS011;2485;49.326;7.214;2023-05-10T13:40:06;2.33;;;1.00;;
4939;SDS011;2485;49.326;7.214;2023-05-10T13:42:34;4.20;;;1.10;;
4939;SDS011;2485;49.326;7.214;2023-05-10T13:45:01;2.07;;;0.93;;
4939;SDS011;2485;49.326;7.214;2023-05-10T13:47:27;1.10;;;1.00;;
4939;SDS011;2485;49.326;7.214;2023-05-10T13:49:54;2.97;;;1.03;;
4939;SDS011;2485;49.326;7.214;2023-05-10T13:52:21;0.80;;;0.80;;
4939;SDS011;2485;49.326;7.214;2023-05-10T13:54:47;1.40;;;1.10;;
4939;SDS011;2485;49.326;7.214;2023-05-10T13:57:14;2.30;;;0.90;;
4939;SDS011;2485;49.326;7.214;2023-05-10T13:59:43;1.20;;;1.00;;
4939;SDS011;2485;49.326;7.214;2023-05-10T14:02:09;1.73;;;1.00;;
4939;SDS011;2485;49.326;7.214;2023-05-10T14:04:37;1.30;;;0.93;;
4939;SDS011;2485;49.326;7.214;2023-05-10T14:07:04;3.13;;;1.13;;
4939;SDS011;2485;49.326;7.214;2023-05-10T14:09:30;1.37;;;1.10;;
4939;SDS011;2485;49.326;7.214;2023-05-10T14:11:57;1.00;;;0.90;;
4939;SDS011;2485;49.326;7.214;2023-05-10T14:14:24;1.90;;;0.97;;
4939;SDS011;2485;49.326;7.214;2023-05-10T14:16:52;5.03;;;0.97;;
4939;SDS011;2485;49.326;7.214;2023-05-10T14:19:18;0.80;;;0.70;;
4939;SDS011;2485;49.326;7.214;2023-05-10T14:21:45;1.43;;;1.07;;
4939;SDS011;2485;49.326;7.214;2023-05-10T14:24:11;1.73;;;1.00;;
4939;SDS011;2485;49.326;7.214;2023-05-10T14:26:38;1.70;;;1.03;;
4939;SDS011;2485;49.326;7.214;2023-05-10T14:29:04;3.70;;;1.57;;
4939;SDS011;2485;49.326;7.214;2023-05-10T14:31:31;1.50;;;1.00;;
4939;SDS011;2485;49.326;7.214;2023-05-10T14:33:59;1.30;;;0.90;;
4939;SDS011;2485;49.326;7.214;2023-05-10T14:36:26;1.97;;;1.10;;
4939;SDS011;2485;49.326;7.214;2023-05-10T14:38:54;4.07;;;1.10;;
4939;SDS011;2485;49.326;7.214;2023-05-10T14:41:20;1.57;;;0.80;;
4939;SDS011;2485;49.326;7.214;2023-05-10T14:43:48;2.07;;;1.30;;
4939;SDS011;2485;49.326;7.214;2023-05-10T14:46:14;1.37;;;0.87;;
4939;SDS011;2485;49.326;7.214;2023-05-10T14:48:41;1.73;;;1.07;;
4939;SDS011;2485;49.326;7.214;2023-05-10T14:51:09;2.30;;;0.93;;
4939;SDS011;2485;49.326;7.214;2023-05-10T14:53:36;1.10;;;0.90;;
4939;SDS011;2485;49.326;7.214;2023-05-10T14:56:03;2.10;;;0.80;;
4939;SDS011;2485;49.326;7.214;2023-05-10T14:58:29;2.50;;;1.10;;
4939;SDS011;2485;49.326;7.214;2023-05-10T15:00:56;1.00;;;0.83;;
4939;SDS011;2485;49.326;7.214;2023-05-10T15:03:23;1.10;;;0.80;;
4939;SDS011;2485;49.326;7.214;2023-05-10T15:05:49;4.03;;;1.00;;
4939;SDS011;2485;49.326;7.214;2023-05-10T15:08:18;1.00;;;0.90;;
4939;SDS011;2485;49.326;7.214;2023-05-10T15:10:44;3.33;;;1.10;;
4939;SDS011;2485;49.326;7.214;2023-05-10T15:13:11;4.50;;;1.10;;
4939;SDS011;2485;49.326;7.214;2023-05-10T15:15:38;0.80;;;0.80;;
4939;SDS011;2485;49.326;7.214;2023-05-10T15:18:04;3.13;;;1.20;;
4939;SDS011;2485;49.326;7.214;2023-05-10T15:20:31;2.43;;;1.00;;
4939;SDS011;2485;49.326;7.214;2023-05-10T15:22:57;2.70;;;0.90;;
4939;SDS011;2485;49.326;7.214;2023-05-10T15:25:25;1.93;;;0.87;;
4939;SDS011;2485;49.326;7.214;2023-05-10T15:27:53;0.97;;;0.80;;
4939;SDS011;2485;49.326;7.214;2023-05-10T15:30:20;3.17;;;0.90;;
4939;SDS011;2485;49.326;7.214;2023-05-10T15:32:46;4.83;;;1.00;;